Time;durP1;ratioP1;P1;durP2;ratioP2;P2;SDS_P1;SDS_P2;PMS_P1;PMS_P2;Temp;Humidity;BMP_temperature;BMP_pressure;BME280_temperature;BME280_humidity;BME280_pressure;Samples;Min_cycle;Max_cycle;Signal;HPM_P1;HPM_P2
2023/09/19 00:01:30;;;;;;;14.82;3.22;;;;;;;17.75;65.57;100686.63;5029515;28;20400;-69
2023/09/19 00:03:57;;;;;;;11.82;2.85;;;;;;;17.73;65.57;100693.69;5031383;28;20049;-69
2023/09/19 00:06:26;;;;;;;12.05;2.83;;;;;;;17.74;65.74;100690.56;5032171;28;20108;-69
2023/09/19 00:08:51;;;;;;;13.50;2.83;;;;;;;17.74;65.49;100696.16;5026219;28;20053;-69
2023/09/19 00:11:19;;;;;;;12.23;2.80;;;;;;;17.75;65.90;100691.41;5012617;28;21043;-69
2023/09/19 00:13:49;;;;;;;12.60;3.17;;;;;;;17.70;65.63;100709.16;5029350;28;20441;-69
2023/09/19 00:16:15;;;;;;;9.13;2.53;;;;;;;17.70;65.52;100711.94;5030688;28;20023;-69
2023/09/19 00:18:40;;;;;;;10.57;2.80;;;;;;;17.65;65.65;100706.44;5031184;28;20025;-69
2023/09/19 00:21:06;;;;;;;12.35;2.90;;;;;;;17.57;65.71;100712.72;5032049;28;20036;-69
2023/09/19 00:23:32;;;;;;;13.07;2.70;;;;;;;17.62;65.97;100709.84;5029482;28;20392;-69
2023/09/19 00:26:00;;;;;;;14.00;3.05;;;;;;;17.60;65.56;100714.91;5029192;28;20105;-69
2023/09/19 00:28:27;;;;;;;12.60;3.10;;;;;;;17.54;65.90;100725.38;5016851;28;20731;-69
2023/09/19 00:30:52;;;;;;;15.57;3.17;;;;;;;17.61;65.75;100719.41;5012520;28;20413;-69
2023/09/19 00:33:20;;;;;;;13.38;3.13;;;;;;;17.61;65.83;100731.47;5016468;28;20029;-69
2023/09/19 00:35:56;;;;;;;11.30;2.58;;;;;;;17.52;65.50;100736.06;5027001;28;20033;-70
2023/09/19 00:38:24;;;;;;;13.35;2.80;;;;;;;17.46;65.54;100733.66;5030720;28;20033;-69
2023/09/19 00:40:53;;;;;;;9.80;2.97;;;;;;;17.46;65.50;100733.66;5031748;28;20029;-68
2023/09/19 00:43:18;;;;;;;9.80;2.85;;;;;;;17.48;65.02;100734.16;5028347;28;20076;-69
2023/09/19 00:45:48;;;;;;;10.30;2.83;;;;;;;17.47;65.29;100738.13;5029904;28;20033;-69
2023/09/19 00:48:14;;;;;;;12.35;2.75;;;;;;;17.46;65.23;100747.69;5030596;28;20103;-69
2023/09/19 00:50:42;;;;;;;17.15;3.75;;;;;;;17.52;65.14;100749.25;5029775;28;20030;-69
2023/09/19 00:53:07;;;;;;;14.60;2.58;;;;;;;17.45;64.94;100749.66;5031663;28;20084;-68
2023/09/19 00:55:34;;;;;;;7.95;2.42;;;;;;;17.46;65.14;100756.09;5031652;28;20025;-68
2023/09/19 00:57:59;;;;;;;9.63;2.58;;;;;;;17.49;64.87;100752.66;5029687;28;20056;-68
2023/09/19 01:00:25;;;;;;;15.30;2.75;;;;;;;17.43;64.44;100758.34;5031458;28;20049;-68
2023/09/19 01:02:51;;;;;;;11.25;2.83;;;;;;;17.45;64.76;100760.88;5029383;28;20040;-69
2023/09/19 01:05:16;;;;;;;13.10;2.70;;;;;;;17.36;64.53;100763.50;5020405;28;20661;-69
2023/09/19 01:07:45;;;;;;;11.90;2.58;;;;;;;17.40;64.29;100764.56;5027958;28;20033;-69
2023/09/19 01:10:14;;;;;;;11.35;3.05;;;;;;;17.33;64.80;100774.47;5026060;28;20052;-69
2023/09/19 01:13:15;;;;;;;11.27;3.00;;;;;;;17.25;64.96;100772.34;5023784;28;20030;-68
2023/09/19 01:15:58;;;;;;;9.43;2.53;;;;;;;17.25;65.10;100772.34;5002268;28;20393;-68
2023/09/19 01:18:52;;;;;;;13.45;3.30;;;;;;;17.31;65.18;100771.16;5020227;28;20535;-69
2023/09/19 01:21:31;;;;;;;10.55;2.60;;;;;;;17.28;64.57;100769.78;5024844;28;20040;-69
2023/09/19 01:24:15;;;;;;;10.35;2.70;;;;;;;17.27;64.54;100770.91;5024526;28;20037;-68
2023/09/19 01:27:00;;;;;;;10.43;2.47;;;;;;;17.27;64.19;100773.72;5029872;28;20040;-69
2023/09/19 01:29:39;;;;;;;9.32;2.58;;;;;;;17.25;64.03;100775.16;5030707;28;20032;-68
2023/09/19 01:32:09;;;;;;;11.85;2.80;;;;;;;17.16;64.00;100780.59;5018447;28;20035;-69
2023/09/19 01:34:52;;;;;;;12.40;2.58;;;;;;;17.24;63.79;100787.50;5029610;28;20397;-68
2023/09/19 01:37:25;;;;;;;14.75;3.35;;;;;;;17.12;63.39;100779.53;5019817;28;20026;-68
2023/09/19 01:40:11;;;;;;;10.23;2.33;;;;;;;17.17;63.54;100793.47;5010630;28;20084;-69
2023/09/19 01:42:46;;;;;;;12.32;2.45;;;;;;;17.09;63.82;100788.53;5015202;28;20032;-68
2023/09/19 01:45:41;;;;;;;11.07;2.72;;;;;;;17.04;64.22;100799.81;5030222;28;20034;-69
2023/09/19 01:48:25;;;;;;;10.85;2.83;;;;;;;17.07;63.72;100799.22;5032188;28;20033;-69
2023/09/19 01:51:01;;;;;;;12.77;3.03;;;;;;;17.13;63.21;100803.63;5021638;28;20486;-69
2023/09/19 01:53:30;;;;;;;12.05;2.78;;;;;;;17.07;63.07;100788.84;5025337;28;20500;-69
2023/09/19 01:55:57;;;;;;;11.70;2.90;;;;;;;17.05;62.82;100790.25;5034623;28;20395;-69
2023/09/19 01:58:39;;;;;;;10.98;3.05;;;;;;;17.01;62.35;100798.44;5034490;28;20021;-68
2023/09/19 02:01:06;;;;;;;8.88;2.42;;;;;;;17.05;62.01;100793.88;5028676;28;20052;-69
2023/09/19 02:03:33;;;;;;;13.43;2.60;;;;;;;17.02;61.91;100794.50;5028627;28;20033;-68
2023/09/19 02:05:58;;;;;;;10.55;2.65;;;;;;;17.02;61.79;100791.72;5028420;28;20026;-69
2023/09/19 02:08:24;;;;;;;10.13;2.55;;;;;;;16.97;62.01;100790.91;5032498;28;20051;-69
2023/09/19 02:10:49;;;;;;;8.43;2.35;;;;;;;16.96;61.81;100797.66;5034357;28;20419;-69
2023/09/19 02:13:19;;;;;;;10.70;2.63;;;;;;;16.96;61.99;100797.66;5034355;28;20048;-69
2023/09/19 02:15:47;;;;;;;11.98;2.92;;;;;;;16.93;61.75;100790.66;5031950;28;20041;-69
2023/09/19 02:18:14;;;;;;;10.85;2.70;;;;;;;16.90;61.58;100789.31;5031907;28;20030;-69
2023/09/19 02:20:39;;;;;;;13.68;2.50;;;;;;;16.88;61.77;100793.53;5029542;28;20025;-69
2023/09/19 02:23:06;;;;;;;9.88;2.90;;;;;;;16.85;61.64;100791.31;5024106;28;20037;-69
2023/09/19 02:25:32;;;;;;;11.90;2.83;;;;;;;16.83;61.87;100800.03;5033998;28;20425;-69
2023/09/19 02:27:58;;;;;;;12.00;2.85;;;;;;;16.83;61.39;100796.41;5033824;28;20099;-69
2023/09/19 02:30:25;;;;;;;12.45;2.70;;;;;;;16.74;61.36;100806.56;5032036;28;20072;-69
2023/09/19 02:32:50;;;;;;;11.73;2.97;;;;;;;16.82;61.30;100803.97;5032767;28;20107;-68
2023/09/19 02:35:21;;;;;;;11.82;2.67;;;;;;;16.75;61.02;100808.25;5026015;28;20464;-69
2023/09/19 02:37:53;;;;;;;10.52;2.30;;;;;;;16.74;61.54;100810.22;5033129;28;20124;-69
2023/09/19 02:40:18;;;;;;;11.80;2.90;;;;;;;16.74;61.02;100804.63;5032828;28;20053;-69
2023/09/19 02:42:49;;;;;;;13.70;2.58;;;;;;;16.76;61.20;100798.72;5016432;28;20107;-69
2023/09/19 02:45:17;;;;;;;8.68;2.20;;;;;;;16.71;60.60;100795.94;5020812;28;20022;-69
2023/09/19 02:47:45;;;;;;;12.48;2.88;;;;;;;16.79;60.97;100801.75;5031712;28;20024;-69
2023/09/19 02:50:11;;;;;;;11.90;2.70;;;;;;;16.67;60.96;100809.72;5030102;28;20026;-69
2023/09/19 02:52:37;;;;;;;9.75;2.63;;;;;;;16.60;60.22;100807.25;5032594;28;20037;-69
2023/09/19 02:55:04;;;;;;;10.68;2.65;;;;;;;16.58;60.47;100814.25;5032106;28;20048;-69
2023/09/19 02:57:31;;;;;;;9.30;2.92;;;;;;;16.61;60.64;100820.13;5030215;28;20114;-69
2023/09/19 02:59:56;;;;;;;7.72;2.92;;;;;;;16.52;60.63;100812.66;5025834;28;20453;-68
2023/09/19 03:02:24;;;;;;;11.25;2.85;;;;;;;16.53;60.36;100815.16;5031553;28;20049;-69
2023/09/19 03:04:51;;;;;;;11.75;2.70;;;;;;;16.56;60.10;100813.72;5031457;28;20488;-69
2023/09/19 03:07:17;;;;;;;8.43;2.50;;;;;;;16.56;59.85;100827.75;5033162;28;20025;-69
2023/09/19 03:09:43;;;;;;;9.98;2.70;;;;;;;16.57;60.01;100819.03;5026626;28;20160;-69
2023/09/19 03:12:08;;;;;;;9.98;2.33;;;;;;;16.48;59.74;100808.75;5024734;28;20108;-69
2023/09/19 03:14:35;;;;;;;6.20;2.30;;;;;;;16.51;59.73;100817.41;5019518;28;20026;-69
2023/09/19 03:17:00;;;;;;;8.05;2.45;;;;;;;16.45;60.05;100821.38;5033014;28;20096;-69
2023/09/19 03:19:26;;;;;;;7.93;2.80;;;;;;;16.47;59.90;100812.69;5025716;28;20054;-69
2023/09/19 03:21:53;;;;;;;9.25;2.83;;;;;;;16.45;59.98;100822.22;5032484;28;20037;-69
2023/09/19 03:24:21;;;;;;;11.35;2.63;;;;;;;16.37;59.89;100819.22;5032707;28;20461;-69
2023/09/19 03:26:46;;;;;;;8.00;2.80;;;;;;;16.44;60.07;100819.72;5016563;28;20041;-69
2023/09/19 03:29:13;;;;;;;9.13;2.20;;;;;;;16.38;60.04;100820.88;5013028;28;20025;-69
2023/09/19 03:31:39;;;;;;;9.38;2.42;;;;;;;16.40;59.70;100810.22;5030491;28;20040;-69
2023/09/19 03:34:04;;;;;;;9.57;2.83;;;;;;;16.40;60.09;100816.66;5031499;28;20104;-69
2023/09/19 03:36:30;;;;;;;11.48;3.03;;;;;;;16.41;59.90;100818.31;5031541;28;20025;-69
2023/09/19 03:38:55;;;;;;;6.55;2.13;;;;;;;16.45;60.19;100816.63;5030956;28;20112;-69
2023/09/19 03:41:21;;;;;;;12.13;2.72;;;;;;;16.43;60.07;100806.84;5029886;28;20124;-69
2023/09/19 03:43:46;;;;;;;11.55;2.67;;;;;;;16.47;60.06;100818.31;5029796;28;20049;-69
2023/09/19 03:46:15;;;;;;;8.98;2.60;;;;;;;16.42;60.04;100805.97;5016290;28;20187;-69
2023/09/19 03:48:40;;;;;;;10.50;2.90;;;;;;;16.47;60.33;100809.91;5022799;28;20036;-69
2023/09/19 03:51:05;;;;;;;11.27;2.67;;;;;;;16.47;60.38;100793.09;5031353;28;20029;-69
2023/09/19 03:53:31;;;;;;;11.32;2.40;;;;;;;16.48;60.25;100803.16;5031372;28;20033;-69
2023/09/19 03:55:57;;;;;;;11.63;2.60;;;;;;;16.50;60.29;100800.88;5030226;28;20029;-69
2023/09/19 03:58:22;;;;;;;8.57;2.50;;;;;;;16.45;60.57;100799.81;5028091;28;20132;-69
2023/09/19 04:00:49;;;;;;;7.80;3.00;;;;;;;16.43;60.77;100804.03;5016559;28;20033;-69
2023/09/19 04:03:20;;;;;;;7.25;2.63;;;;;;;16.38;61.01;100804.06;5031972;28;20499;-69
2023/09/19 04:05:47;;;;;;;10.70;2.60;;;;;;;16.37;61.17;100803.22;5030896;28;20108;-69
2023/09/19 04:08:18;;;;;;;7.38;2.58;;;;;;;16.36;61.21;100801.56;5028417;28;20053;-69
2023/09/19 04:10:45;;;;;;;12.93;2.55;;;;;;;16.34;61.40;100806.63;5030452;28;20033;-69
2023/09/19 04:13:10;;;;;;;6.70;2.28;;;;;;;16.34;61.57;100803.81;5032077;28;20017;-69
2023/09/19 04:15:37;;;;;;;10.98;2.88;;;;;;;16.34;61.65;100795.41;5030144;28;20025;-69
2023/09/19 04:18:03;;;;;;;10.02;2.67;;;;;;;16.36;61.62;100804.38;5029160;28;20163;-69
2023/09/19 04:20:29;;;;;;;11.93;3.00;;;;;;;16.29;61.98;100809.47;5031044;28;20108;-69
2023/09/19 04:22:56;;;;;;;9.32;2.50;;;;;;;16.36;61.89;100818.38;5030787;28;20120;-68
2023/09/19 04:25:22;;;;;;;9.65;2.70;;;;;;;16.28;62.18;100824.59;5030059;28;20034;-69
2023/09/19 04:27:47;;;;;;;14.05;3.28;;;;;;;16.34;61.99;100831.81;5015266;28;20037;-69
2023/09/19 04:30:14;;;;;;;12.98;3.10;;;;;;;16.35;62.21;100830.72;5029329;28;20114;-69
2023/09/19 04:32:39;;;;;;;9.20;2.38;;;;;;;16.36;62.20;100831.56;5031582;28;20025;-68
2023/09/19 04:35:08;;;;;;;9.50;2.40;;;;;;;16.26;62.06;100842.81;5030734;28;20163;-69
2023/09/19 04:37:41;;;;;;;14.48;3.35;;;;;;;16.24;62.63;100845.09;5029757;28;20025;-69
2023/09/19 04:40:17;;;;;;;7.50;2.53;;;;;;;16.28;62.73;100847.03;5030984;28;20045;-69
2023/09/19 04:42:43;;;;;;;9.93;2.33;;;;;;;16.24;62.70;100859.94;5026202;28;20046;-69
2023/09/19 04:45:10;;;;;;;14.98;3.22;;;;;;;16.25;62.72;100875.59;5029466;28;20057;-69
2023/09/19 04:47:38;;;;;;;8.77;2.40;;;;;;;16.28;62.85;100866.63;5031256;28;20473;-69
2023/09/19 04:50:05;;;;;;;14.23;3.03;;;;;;;16.24;62.81;100871.13;5029188;28;20029;-69
2023/09/19 04:52:31;;;;;;;11.13;2.92;;;;;;;16.28;63.03;100871.38;5029821;28;20032;-69
2023/09/19 04:54:57;;;;;;;13.38;2.80;;;;;;;16.30;62.94;100880.31;5030018;28;20025;-69
2023/09/19 04:57:22;;;;;;;11.80;2.90;;;;;;;16.21;63.18;100891.31;5029514;28;20132;-69
2023/09/19 04:59:48;;;;;;;9.10;2.70;;;;;;;16.26;63.00;100877.25;5028708;28;20026;-69
2023/09/19 05:02:13;;;;;;;16.10;3.10;;;;;;;16.32;63.15;100883.69;5021509;28;20053;-69
2023/09/19 05:04:38;;;;;;;12.15;2.70;;;;;;;16.25;63.12;100881.19;5010892;28;20032;-67
2023/09/19 05:07:06;;;;;;;11.15;2.67;;;;;;;16.33;63.07;100883.38;5029286;28;20030;-72
2023/09/19 05:09:34;;;;;;;8.85;2.75;;;;;;;16.33;63.14;100885.34;5030896;28;20117;-66
2023/09/19 05:11:59;;;;;;;9.82;2.60;;;;;;;16.33;63.34;100885.34;5028569;28;20033;-70
2023/09/19 05:14:24;;;;;;;11.07;3.03;;;;;;;16.27;63.26;100883.69;5029262;28;20046;-72
2023/09/19 05:16:50;;;;;;;11.00;2.55;;;;;;;16.27;63.18;100880.91;5022010;28;20029;-71
2023/09/19 05:19:15;;;;;;;14.00;2.78;;;;;;;16.28;63.38;100877.81;5027767;28;20397;-71
2023/09/19 05:21:46;;;;;;;9.52;2.55;;;;;;;16.29;63.37;100885.09;5024775;28;20476;-70
2023/09/19 05:24:22;;;;;;;8.52;2.45;;;;;;;16.24;63.68;100892.72;5034592;28;20028;-71
2023/09/19 05:26:48;;;;;;;11.05;2.90;;;;;;;16.19;63.79;100890.75;5028585;28;20029;-71
2023/09/19 05:29:13;;;;;;;9.70;2.40;;;;;;;16.23;64.13;100885.41;5033421;28;20022;-71
2023/09/19 05:31:40;;;;;;;9.75;2.42;;;;;;;16.19;64.13;100894.41;5032013;28;20106;-69
2023/09/19 05:34:06;;;;;;;13.35;2.75;;;;;;;16.17;64.23;100891.06;5033074;28;20491;-70
2023/09/19 05:36:31;;;;;;;7.18;2.50;;;;;;;16.22;64.26;100895.78;5030217;28;20052;-71
2023/09/19 05:38:57;;;;;;;10.13;2.65;;;;;;;16.19;64.63;100901.94;5032389;28;20146;-70
2023/09/19 05:41:22;;;;;;;10.82;2.50;;;;;;;16.14;64.77;100894.44;5031645;28;20034;-72
2023/09/19 05:43:50;;;;;;;8.45;2.58;;;;;;;16.14;65.02;100902.81;5034006;28;20021;-71
2023/09/19 05:46:15;;;;;;;7.53;2.10;;;;;;;16.17;65.00;100901.41;5032327;28;20116;-73
2023/09/19 05:48:41;;;;;;;12.60;2.85;;;;;;;16.21;64.73;100902.50;5032103;28;20038;-72
2023/09/19 05:51:07;;;;;;;10.57;2.55;;;;;;;16.16;65.06;100892.19;5031678;28;20033;-70
2023/09/19 05:53:34;;;;;;;7.40;2.30;;;;;;;16.14;65.04;100894.44;5015314;28;20479;-72
2023/09/19 05:56:00;;;;;;;11.52;3.13;;;;;;;16.16;65.00;100886.59;5014138;28;20584;-71
2023/09/19 05:58:26;;;;;;;11.90;2.92;;;;;;;16.17;65.23;100877.03;5019554;28;20370;-72
2023/09/19 06:00:52;;;;;;;10.27;3.13;;;;;;;16.21;64.99;100882.91;5031667;28;20040;-71
2023/09/19 06:03:18;;;;;;;11.13;2.45;;;;;;;16.24;65.04;100878.69;5027859;28;20021;-72
2023/09/19 06:05:49;;;;;;;13.95;2.90;;;;;;;16.25;65.15;100880.38;5027021;28;20033;-72
2023/09/19 06:08:14;;;;;;;11.75;2.80;;;;;;;16.21;65.24;100888.50;5024117;28;20050;-71
2023/09/19 06:10:40;;;;;;;12.27;3.08;;;;;;;16.17;65.46;100893.03;5027645;28;20159;-72
2023/09/19 06:13:06;;;;;;;9.25;2.75;;;;;;;16.23;65.29;100889.06;5027332;28;20139;-70
2023/09/19 06:15:37;;;;;;;11.05;2.85;;;;;;;16.24;65.51;100892.72;5030566;28;20029;-72
2023/09/19 06:18:04;;;;;;;11.90;2.72;;;;;;;16.20;65.47;100901.69;5032520;28;20101;-77
2023/09/19 06:20:31;;;;;;;10.50;2.53;;;;;;;16.14;65.88;100904.78;5030228;28;20095;-72
2023/09/19 06:22:56;;;;;;;9.77;2.88;;;;;;;16.15;65.93;100895.25;5023204;28;20124;-71
2023/09/19 06:25:22;;;;;;;12.35;2.80;;;;;;;16.13;66.10;100903.13;5016332;28;20799;-71
2023/09/19 06:27:55;;;;;;;11.85;2.60;;;;;;;16.12;66.29;100902.28;5010406;28;20125;-71
2023/09/19 06:30:24;;;;;;;12.93;3.05;;;;;;;16.14;66.54;100910.38;5011839;28;20092;-71
2023/09/19 06:32:55;;;;;;;11.07;2.85;;;;;;;16.13;66.36;100915.16;5028778;28;20053;-71
2023/09/19 06:35:20;;;;;;;10.90;2.88;;;;;;;16.15;66.24;100928.84;5025143;28;20124;-71
2023/09/19 06:37:45;;;;;;;11.55;2.97;;;;;;;16.10;66.42;100926.09;5028260;28;20060;-72
2023/09/19 06:40:15;;;;;;;14.20;2.95;;;;;;;16.07;66.69;100915.47;5021000;28;20068;-73
2023/09/19 06:42:41;;;;;;;14.07;3.30;;;;;;;16.04;66.93;100918.88;5014329;28;20026;-74
2023/09/19 06:45:07;;;;;;;12.05;2.95;;;;;;;16.06;66.92;100923.03;5023307;28;20037;-74
2023/09/19 06:47:33;;;;;;;10.25;3.22;;;;;;;16.05;67.15;100931.72;5032122;28;20432;-76
2023/09/19 06:49:58;;;;;;;12.07;3.00;;;;;;;16.09;67.17;100922.47;5032163;28;20373;-74
2023/09/19 06:52:23;;;;;;;11.13;2.85;;;;;;;16.11;67.13;100928.63;5032395;28;20113;-75
2023/09/19 06:54:50;;;;;;;12.82;3.25;;;;;;;16.17;66.99;100923.81;5031565;28;20033;-73
2023/09/19 06:57:16;;;;;;;13.80;3.08;;;;;;;16.15;67.24;100940.94;5022764;28;20034;-72
2023/09/19 06:59:41;;;;;;;11.73;2.80;;;;;;;16.19;67.14;100930.81;5024094;28;20176;-73
2023/09/19 07:02:08;;;;;;;13.02;3.40;;;;;;;16.17;67.10;100924.66;5027831;28;20485;-73
2023/09/19 07:04:33;;;;;;;10.55;3.03;;;;;;;16.22;67.12;100926.59;5031215;28;20041;-74
2023/09/19 07:06:59;;;;;;;10.00;2.65;;;;;;;16.25;67.23;100928.81;5032654;28;20025;-71
2023/09/19 07:09:27;;;;;;;13.35;2.80;;;;;;;16.27;67.22;100922.91;5031959;28;20050;-72
2023/09/19 07:11:53;;;;;;;12.93;3.28;;;;;;;16.28;67.27;100931.03;5030650;28;20535;-72
2023/09/19 07:14:18;;;;;;;9.48;2.50;;;;;;;16.30;67.19;100937.19;5028907;28;20022;-71
2023/09/19 07:16:44;;;;;;;10.57;2.97;;;;;;;16.33;67.06;100936.59;5026770;28;20037;-72
2023/09/19 07:19:10;;;;;;;15.15;2.60;;;;;;;16.34;67.30;100937.44;5022695;28;20079;-70
2023/09/19 07:21:35;;;;;;;13.73;2.70;;;;;;;16.29;67.68;100935.50;5030571;28;20461;-71
2023/09/19 07:24:02;;;;;;;8.75;2.97;;;;;;;16.30;67.35;100936.34;5028134;28;20049;-71
2023/09/19 07:26:27;;;;;;;12.45;2.97;;;;;;;16.30;67.42;100948.38;5029885;28;20099;-71
2023/09/19 07:28:53;;;;;;;12.40;2.95;;;;;;;16.27;67.42;100937.78;5032128;28;20033;-71
2023/09/19 07:31:18;;;;;;;13.27;2.80;;;;;;;16.30;67.19;100930.75;5027534;28;21724;-72
2023/09/19 07:33:44;;;;;;;12.88;2.70;;;;;;;16.31;67.59;100927.66;5028125;28;20087;-71
2023/09/19 07:36:13;;;;;;;13.75;3.55;;;;;;;16.35;67.69;100928.75;5026378;28;20359;-71
2023/09/19 07:38:38;;;;;;;13.55;2.70;;;;;;;16.44;67.42;100923.38;5015668;28;20049;-71
2023/09/19 07:41:05;;;;;;;12.88;2.85;;;;;;;16.48;67.17;100921.66;5022431;28;20114;-72
2023/09/19 07:43:31;;;;;;;12.02;3.17;;;;;;;16.52;67.03;100935.94;5029150;28;20040;-72
2023/09/19 07:45:56;;;;;;;11.82;2.72;;;;;;;16.56;67.30;100935.06;5030245;28;20477;-72
2023/09/19 07:48:23;;;;;;;11.93;3.08;;;;;;;16.61;66.83;100936.97;5031158;28;20037;-72
2023/09/19 07:50:48;;;;;;;13.38;2.72;;;;;;;16.67;66.55;100933.03;5031528;28;20370;-72
2023/09/19 07:53:17;;;;;;;11.27;2.53;;;;;;;16.73;66.34;100937.47;5029220;28;20044;-71
2023/09/19 07:55:43;;;;;;;12.23;2.63;;;;;;;16.81;66.55;100941.63;5023450;28;20041;-66
2023/09/19 07:58:13;;;;;;;11.15;2.75;;;;;;;16.82;66.56;100934.88;5022615;28;20030;-65
2023/09/19 08:00:38;;;;;;;15.57;3.28;;;;;;;16.85;66.70;100943.53;5028040;28;20029;-70
2023/09/19 08:03:08;;;;;;;17.83;3.45;;;;;;;16.90;66.68;100943.50;5030710;28;20052;-70
2023/09/19 08:05:37;;;;;;;12.82;2.92;;;;;;;16.91;66.35;100947.97;5031234;28;20041;-70
2023/09/19 08:08:02;;;;;;;11.38;2.63;;;;;;;16.97;66.47;100950.72;5030294;28;20032;-70
2023/09/19 08:10:35;;;;;;;12.15;3.17;;;;;;;17.01;66.21;100941.44;5031033;28;20100;-71
2023/09/19 08:13:02;;;;;;;10.27;3.28;;;;;;;17.05;66.01;100950.09;5029451;28;20473;-70
2023/09/19 08:15:27;;;;;;;10.02;2.97;;;;;;;17.02;66.44;100945.94;5030999;28;20155;-70
2023/09/19 08:17:52;;;;;;;11.15;2.65;;;;;;;17.06;65.97;100944.22;5012917;28;20629;-70
2023/09/19 08:20:21;;;;;;;13.07;2.72;;;;;;;17.14;66.00;100942.75;5010239;28;20032;-70
2023/09/19 08:22:54;;;;;;;11.35;3.00;;;;;;;17.14;65.90;100943.56;5011217;28;20076;-70
2023/09/19 08:25:25;;;;;;;18.02;3.60;;;;;;;17.21;65.87;100945.19;5011288;28;20033;-69
2023/09/19 08:27:57;;;;;;;14.25;3.42;;;;;;;17.31;65.81;100951.53;5026621;28;20029;-70
2023/09/19 08:30:23;;;;;;;13.77;2.92;;;;;;;17.36;65.26;100942.22;5030895;28;20087;-70
2023/09/19 08:32:50;;;;;;;9.25;2.30;;;;;;;17.43;65.33;100940.75;5026399;28;20509;-71
2023/09/19 08:35:16;;;;;;;10.05;2.70;;;;;;;17.48;65.32;100944.63;5028749;28;20033;-70
2023/09/19 08:37:42;;;;;;;15.45;3.17;;;;;;;17.38;65.59;100946.41;5028245;28;20443;-70
2023/09/19 08:40:09;;;;;;;16.67;3.45;;;;;;;17.46;64.83;100935.69;5030527;28;20017;-70
2023/09/19 08:42:50;;;;;;;15.10;2.80;;;;;;;17.51;64.64;100936.44;5029967;28;20487;-70
2023/09/19 08:45:16;;;;;;;9.13;2.88;;;;;;;17.54;64.63;100946.25;5030616;28;20103;-70
2023/09/19 08:47:50;;;;;;;12.43;3.00;;;;;;;17.52;64.25;100940.09;5029637;28;20037;-70
2023/09/19 08:50:29;;;;;;;15.38;3.55;;;;;;;17.61;64.85;100943.94;5029590;28;20032;-71
2023/09/19 08:53:01;;;;;;;10.93;2.75;;;;;;;17.62;64.57;100932.41;5030655;28;20103;-70
2023/09/19 08:55:28;;;;;;;13.40;2.97;;;;;;;17.62;64.68;100940.81;5024385;28;20032;-71
2023/09/19 08:58:10;;;;;;;10.52;2.72;;;;;;;17.80;64.57;100950.47;5020174;28;20033;-70
2023/09/19 09:00:36;;;;;;;10.95;3.10;;;;;;;17.85;64.17;100947.59;5017505;28;20480;-71
2023/09/19 09:03:03;;;;;;;10.00;2.60;;;;;;;17.87;63.28;100939.69;5029966;28;20115;-70
2023/09/19 09:05:30;;;;;;;12.10;3.17;;;;;;;17.89;62.97;100934.63;5030295;28;20036;-70
2023/09/19 09:07:56;;;;;;;11.63;2.50;;;;;;;17.97;63.30;100943.53;5030487;28;20112;-70
2023/09/19 09:10:22;;;;;;;10.43;2.92;;;;;;;18.04;63.02;100941.19;5028561;28;20040;-70
2023/09/19 09:12:54;;;;;;;12.57;2.92;;;;;;;18.09;62.80;100939.16;5030545;28;20026;-70
2023/09/19 09:15:23;;;;;;;14.80;3.03;;;;;;;18.19;63.17;100932.53;5016527;28;20049;-70
2023/09/19 09:17:54;;;;;;;11.38;3.13;;;;;;;18.32;62.93;100937.44;5010296;28;20036;-71
2023/09/19 09:20:20;;;;;;;10.55;2.90;;;;;;;18.40;62.96;100938.72;5013710;28;20171;-70
2023/09/19 09:23:00;;;;;;;9.00;2.50;;;;;;;18.54;62.70;100938.78;5030528;28;20472;-70
2023/09/19 09:25:59;;;;;;;12.50;2.97;;;;;;;18.61;63.04;100944.84;5029745;28;20037;-71
2023/09/19 09:28:28;;;;;;;14.40;3.20;;;;;;;18.61;61.30;100948.50;5030221;28;20018;-71
2023/09/19 09:30:55;;;;;;;13.95;3.33;;;;;;;18.69;62.35;100941.34;5028777;28;20132;-70
2023/09/19 09:33:21;;;;;;;12.32;3.22;;;;;;;18.72;61.88;100943.59;5025142;28;20465;-71
2023/09/19 09:36:03;;;;;;;12.10;3.22;;;;;;;18.76;61.44;100932.56;5030345;28;20056;-70
2023/09/19 09:38:46;;;;;;;10.98;2.50;;;;;;;18.84;61.53;100920.63;5019929;28;20440;-70
2023/09/19 09:41:15;;;;;;;11.50;3.17;;;;;;;18.89;60.39;100926.16;5010416;28;20865;-70
2023/09/19 09:43:46;;;;;;;12.45;2.63;;;;;;;18.77;60.27;100923.81;5010762;28;20034;-71
2023/09/19 09:51:42;;;;;;;12.25;2.67;;;;;;;18.85;61.16;100913.84;5028841;28;20124;-71
2023/09/19 09:54:15;;;;;;;13.45;3.17;;;;;;;18.89;60.10;100917.72;5020281;28;20084;-71
2023/09/19 09:57:00;;;;;;;15.38;2.88;;;;;;;18.99;59.93;100913.91;5010596;28;20489;-70
2023/09/19 09:59:46;;;;;;;11.27;2.78;;;;;;;18.99;59.88;100919.53;5009753;28;20070;-70
2023/09/19 10:02:13;;;;;;;12.88;2.80;;;;;;;18.98;59.15;100915.03;5027617;28;20556;-70
2023/09/19 10:04:51;;;;;;;10.68;2.60;;;;;;;18.98;59.47;100920.66;5028214;28;20037;-70
2023/09/19 10:13:12;;;;;;;11.00;2.72;;;;;;;19.08;58.79;100920.47;5018768;28;20038;-73
2023/09/19 10:15:38;;;;;;;11.48;2.72;;;;;;;19.17;58.81;100929.03;5015445;28;20038;-71
2023/09/19 10:18:06;;;;;;;8.70;2.45;;;;;;;19.17;58.63;100924.25;5031205;28;20046;-71
2023/09/19 10:20:38;;;;;;;11.90;2.63;;;;;;;19.17;58.32;100924.25;5029514;28;20103;-72
2023/09/19 10:23:12;;;;;;;10.45;2.88;;;;;;;19.09;58.53;100922.16;5023349;28;20830;-72
2023/09/19 10:25:41;;;;;;;14.93;2.60;;;;;;;19.15;58.43;100911.66;5025624;28;20083;-71
2023/09/19 10:28:11;;;;;;;11.38;2.65;;;;;;;19.26;58.93;100907.50;5026307;28;20029;-72
2023/09/19 10:30:44;;;;;;;11.30;2.72;;;;;;;19.30;58.14;100908.56;5022570;28;20117;-71
2023/09/19 10:33:10;;;;;;;9.63;2.80;;;;;;;19.33;58.25;100911.56;5027687;28;20033;-70
2023/09/19 10:35:40;;;;;;;11.05;2.88;;;;;;;19.42;58.53;100920.13;5013748;28;20129;-71
2023/09/19 10:38:06;;;;;;;11.02;2.45;;;;;;;19.53;58.24;100926.38;5016270;28;20030;-70
2023/09/19 10:40:32;;;;;;;11.02;2.88;;;;;;;19.56;57.64;100920.13;5026996;28;20033;-70
2023/09/19 10:43:03;;;;;;;10.75;2.78;;;;;;;19.62;56.98;100924.56;5031269;28;20555;-71
2023/09/19 10:45:39;;;;;;;11.20;2.63;;;;;;;19.68;56.06;100917.66;5032994;28;20025;-71
2023/09/19 10:48:07;;;;;;;11.68;2.65;;;;;;;19.68;55.22;100919.66;5031688;28;20027;-72
2023/09/19 10:50:59;;;;;;;11.73;2.50;;;;;;;19.65;56.96;100917.44;5024134;28;20080;-74
2023/09/19 10:53:25;;;;;;;;;;;;;;;19.71;57.93;100907.75;5031353;28;20477;-75
2023/09/19 10:55:55;;;;;;;12.98;2.85;;;;;;;19.67;56.37;100901.09;5030835;28;19923;-76
2023/09/19 10:58:36;;;;;;;10.75;2.80;;;;;;;19.73;56.75;100906.31;5032223;28;20362;-75
2023/09/19 11:01:05;;;;;;;7.00;2.45;;;;;;;19.80;55.87;100917.97;5032092;28;20041;-73
2023/09/19 11:03:32;;;;;;;8.98;2.03;;;;;;;19.72;55.41;100907.44;5018760;28;20128;-74
2023/09/19 11:06:10;;;;;;;11.13;2.22;;;;;;;19.68;56.03;100892.31;5021766;28;20741;-70
2023/09/19 11:08:57;;;;;;;8.05;2.03;;;;;;;19.74;57.15;100887.44;5028495;28;20382;-69
2023/09/19 11:11:38;;;;;;;9.82;2.40;;;;;;;19.78;57.08;100880.03;5025996;28;20053;-70
2023/09/19 11:14:25;;;;;;;11.80;2.25;;;;;;;19.82;56.55;100884.69;5016852;28;20045;-70
2023/09/19 11:17:15;;;;;;;12.50;2.53;;;;;;;19.81;55.77;100868.13;5020817;28;20037;-70
2023/09/19 11:20:24;;;;;;;7.45;2.10;;;;;;;19.77;56.29;100867.94;5023904;28;20106;-71
2023/09/19 11:22:58;;;;;;;9.63;2.15;;;;;;;19.80;54.43;100881.34;5007993;28;20608;-68
2023/09/19 11:25:30;;;;;;;9.18;2.20;;;;;;;19.89;55.32;100886.28;5020837;28;20438;-68
2023/09/19 11:28:17;;;;;;;7.83;2.20;;;;;;;19.85;54.55;100860.72;5032155;28;20029;-68
2023/09/19 11:30:48;;;;;;;12.00;2.28;;;;;;;19.90;53.74;100856.94;5028864;28;20349;-67
2023/09/19 11:33:33;;;;;;;5.20;1.85;;;;;;;19.94;54.42;100864.44;5030206;28;20021;-69
2023/09/19 11:36:00;;;;;;;5.95;1.90;;;;;;;20.00;53.53;100846.28;5022409;28;20579;-77
2023/09/19 11:41:21;;;;;;;10.38;2.00;;;;;;;20.03;53.00;100848.44;5030391;28;20048;-77
2023/09/19 11:43:47;;;;;;;9.50;2.15;;;;;;;20.04;53.23;100836.06;5029413;28;20033;-73